createdAt,value
2019-02-07T00:02:01.385Z,25.67
2019-02-07T00:04:32.473Z,27.43
2019-02-07T00:07:03.554Z,30.93
2019-02-07T00:09:35.129Z,30.23
2019-02-07T00:12:06.227Z,32.23
2019-02-07T00:14:39.722Z,28.70
2019-02-07T00:17:09.594Z,22.30
2019-02-07T00:19:40.957Z,21.20
2019-02-07T00:22:12.340Z,18.77
2019-02-07T00:24:43.668Z,17.60
2019-02-07T00:27:14.755Z,17.60
2019-02-07T00:29:46.496Z,19.17
2019-02-07T00:32:17.337Z,16.83
2019-02-07T00:34:48.543Z,17.80
2019-02-07T00:37:19.548Z,17.83
2019-02-07T00:39:50.632Z,18.30
2019-02-07T00:42:21.400Z,18.67
2019-02-07T00:44:53.627Z,17.20
2019-02-07T00:47:24.657Z,17.57
2019-02-07T00:49:55.680Z,17.80
2019-02-07T00:52:26.593Z,18.80
2019-02-07T00:54:57.449Z,18.37
2019-02-07T00:57:28.541Z,18.20
2019-02-07T00:59:59.688Z,17.43
2019-02-07T01:02:30.517Z,17.37
2019-02-07T01:05:02.009Z,17.23
2019-02-07T01:07:32.929Z,17.77
2019-02-07T01:10:05.253Z,17.73
2019-02-07T01:12:36.801Z,16.90
2019-02-07T01:15:09.220Z,18.03
2019-02-07T01:17:40.228Z,17.90
2019-02-07T01:20:12.260Z,17.63
2019-02-07T01:22:43.324Z,17.20
2019-02-07T01:25:17.607Z,18.20
2019-02-07T01:27:48.530Z,17.40
2019-02-07T01:30:20.922Z,17.30
2019-02-07T01:32:52.224Z,17.23
2019-02-07T01:35:23.122Z,17.13
2019-02-07T01:37:57.241Z,17.43
2019-02-07T01:40:28.578Z,16.90
2019-02-07T01:42:59.338Z,18.00
2019-02-07T01:45:30.457Z,17.60
2019-02-07T01:48:01.803Z,17.43
2019-02-07T01:50:33.519Z,17.00
2019-02-07T01:53:04.363Z,17.27
2019-02-07T01:55:35.462Z,17.27
2019-02-07T01:58:06.315Z,16.80
2019-02-07T02:00:37.239Z,17.40
2019-02-07T02:03:08.069Z,17.37
2019-02-07T02:05:38.949Z,19.83
2019-02-07T02:08:09.865Z,19.17
2019-02-07T02:10:40.715Z,18.80
2019-02-07T02:13:11.494Z,19.53
2019-02-07T02:15:42.706Z,18.93
2019-02-07T02:18:13.477Z,18.57
2019-02-07T02:20:44.627Z,27.03
2019-02-07T02:23:15.392Z,22.20
2019-02-07T02:25:46.393Z,23.90
2019-02-07T02:28:17.235Z,20.57
2019-02-07T02:30:48.373Z,23.00
2019-02-07T02:33:19.736Z,21.87
2019-02-07T02:35:50.785Z,20.33
2019-02-07T02:38:21.820Z,25.93
2019-02-07T02:40:52.716Z,26.90
2019-02-07T02:43:25.753Z,28.83
2019-02-07T02:45:56.525Z,29.10
2019-02-07T02:48:27.432Z,29.33
2019-02-07T02:50:58.376Z,26.63
2019-02-07T02:53:29.135Z,27.60
2019-02-07T02:56:02.892Z,27.87
2019-02-07T02:58:33.805Z,23.27
2019-02-07T03:01:27.105Z,25.23
2019-02-07T03:04:25.846Z,25.40
2019-02-07T03:07:27.255Z,25.87
2019-02-07T03:10:32.175Z,24.67
2019-02-07T03:13:15.624Z,23.93
2019-02-07T03:16:02.935Z,23.73
2019-02-07T03:18:48.233Z,24.43
2019-02-07T03:21:37.700Z,25.00
2019-02-07T03:24:40.018Z,25.23
2019-02-07T03:27:28.902Z,25.67
2019-02-07T03:30:22.063Z,24.30
2019-02-07T03:33:11.109Z,25.40
2019-02-07T03:36:07.580Z,25.27
2019-02-07T03:39:03.841Z,24.17
2019-02-07T03:41:54.507Z,25.10
2019-02-07T03:44:43.033Z,25.93
2019-02-07T03:47:27.545Z,25.97
2019-02-07T03:50:35.881Z,24.90
2019-02-07T03:53:24.170Z,26.63
2019-02-07T03:56:12.528Z,24.97
2019-02-07T03:59:14.865Z,25.97
2019-02-07T04:02:16.821Z,25.90
2019-02-07T04:05:16.014Z,26.83
2019-02-07T04:08:04.445Z,25.00
2019-02-07T04:11:00.222Z,25.27
2019-02-07T04:14:08.629Z,25.97
2019-02-07T04:17:07.300Z,26.30
2019-02-07T04:20:06.574Z,25.93
2019-02-07T04:22:57.748Z,25.47
2019-02-07T04:25:46.510Z,26.07
2019-02-07T04:28:36.354Z,25.50
2019-02-07T04:31:23.160Z,25.47
2019-02-07T04:34:12.568Z,24.33
2019-02-07T04:37:01.122Z,24.83
2019-02-07T04:40:03.198Z,24.53
2019-02-07T04:42:40.964Z,24.53
2019-02-07T04:45:39.977Z,24.03
2019-02-07T04:48:47.674Z,23.93
2019-02-07T04:51:46.575Z,24.03
2019-02-07T04:54:54.632Z,26.33
2019-02-07T04:57:42.110Z,24.53
2019-02-07T05:00:48.800Z,24.30
2019-02-07T05:03:44.295Z,23.57
2019-02-07T05:06:52.044Z,24.03
2019-02-07T05:09:41.806Z,23.97
2019-02-07T05:12:30.714Z,23.40
2019-02-07T05:15:38.684Z,25.47
2019-02-07T05:18:26.638Z,24.53
2019-02-07T05:21:08.621Z,25.70
2019-02-07T05:23:56.862Z,24.63
2019-02-07T05:26:45.676Z,24.80
2019-02-07T05:29:51.728Z,23.43
2019-02-07T05:32:56.881Z,26.60
2019-02-07T05:35:45.093Z,24.30
2019-02-07T05:38:37.639Z,24.07
2019-02-07T05:41:16.190Z,25.40
2019-02-07T05:44:10.019Z,26.20
2019-02-07T05:47:17.595Z,27.80
2019-02-07T05:50:10.128Z,24.23
2019-02-07T05:53:09.218Z,24.80
2019-02-07T05:55:57.689Z,29.70
2019-02-07T05:58:53.362Z,24.20
2019-02-07T06:01:41.895Z,25.33
2019-02-07T06:04:25.387Z,25.03
2019-02-07T06:07:04.020Z,24.83
2019-02-07T06:09:49.078Z,26.60
2019-02-07T06:12:38.677Z,24.40
2019-02-07T06:15:34.435Z,24.30
2019-02-07T06:18:17.210Z,23.13
2019-02-07T06:20:56.193Z,24.23
2019-02-07T06:23:49.363Z,24.80
2019-02-07T06:26:31.371Z,24.80
2019-02-07T06:29:20.121Z,25.13
2019-02-07T06:32:03.303Z,23.97
2019-02-07T06:34:59.857Z,22.67
2019-02-07T06:37:44.033Z,23.70
2019-02-07T06:40:29.044Z,23.50
2019-02-07T06:43:18.904Z,23.37
2019-02-07T06:46:06.430Z,21.67
2019-02-07T06:48:56.287Z,21.43
2019-02-07T06:51:59.017Z,20.80
2019-02-07T06:54:49.183Z,22.23
2019-02-07T06:57:39.058Z,20.23
2019-02-07T07:00:37.181Z,20.43
2019-02-07T07:03:17.931Z,19.20
2019-02-07T07:06:07.476Z,19.83
2019-02-07T07:08:55.074Z,19.27
2019-02-07T07:11:54.022Z,19.00
2019-02-07T07:14:44.134Z,18.13
2019-02-07T07:17:28.648Z,18.53
2019-02-07T07:20:17.528Z,18.63
2019-02-07T07:23:10.554Z,17.00
2019-02-07T07:25:55.360Z,18.27
2019-02-07T07:28:51.315Z,17.83
2019-02-07T07:31:44.383Z,18.83
2019-02-07T07:34:40.116Z,17.13
2019-02-07T07:37:29.956Z,17.13
2019-02-07T07:40:32.159Z,16.27
2019-02-07T07:43:27.104Z,18.03
2019-02-07T07:46:16.071Z,16.60
2019-02-07T07:49:10.584Z,16.67
2019-02-07T07:52:03.512Z,16.70
2019-02-07T07:54:52.098Z,15.93
2019-02-07T07:57:40.101Z,16.53
2019-02-07T08:00:30.745Z,16.63
2019-02-07T08:03:33.270Z,17.53
2019-02-07T08:06:22.624Z,16.40
2019-02-07T08:09:18.664Z,16.73
2019-02-07T08:12:11.500Z,17.50
2019-02-07T08:15:01.792Z,17.00
2019-02-07T08:17:51.240Z,17.70
2019-02-07T08:20:41.108Z,18.47
2019-02-07T08:23:28.666Z,18.77
2019-02-07T08:26:16.912Z,19.53
2019-02-07T08:28:58.709Z,20.43
2019-02-07T08:31:57.581Z,19.90
2019-02-07T08:34:52.091Z,21.10
2019-02-07T08:37:40.680Z,21.33
2019-02-07T08:40:32.808Z,22.80
2019-02-07T08:43:21.445Z,20.53
2019-02-07T08:46:11.479Z,19.83
2019-02-07T08:49:07.610Z,19.63
2019-02-07T08:52:06.295Z,20.70
2019-02-07T08:54:54.537Z,20.37
2019-02-07T08:57:32.518Z,20.40
2019-02-07T09:00:21.005Z,21.53
2019-02-07T09:03:22.738Z,22.00
2019-02-07T09:06:24.511Z,20.40
2019-02-07T09:09:12.975Z,20.30
2019-02-07T09:12:18.391Z,19.57
2019-02-07T09:15:11.586Z,19.97
2019-02-07T09:17:53.519Z,20.17
2019-02-07T09:20:38.773Z,17.97
2019-02-07T09:23:34.436Z,18.97
2019-02-07T09:26:24.509Z,20.13
2019-02-07T09:29:10.022Z,19.90
2019-02-07T09:31:58.741Z,20.27
2019-02-07T09:34:54.358Z,21.30
2019-02-07T09:37:44.475Z,21.23
2019-02-07T09:40:33.033Z,21.40
2019-02-07T09:43:26.228Z,22.03
2019-02-07T09:46:24.114Z,20.50
2019-02-07T09:49:17.670Z,20.63
2019-02-07T09:52:10.540Z,20.03
2019-02-07T09:55:12.286Z,22.27
2019-02-07T09:58:08.025Z,21.00
2019-02-07T10:00:58.092Z,21.37
2019-02-07T10:03:54.437Z,21.07
2019-02-07T10:06:34.356Z,21.63
2019-02-07T10:09:28.061Z,21.60
2019-02-07T10:12:16.741Z,21.10
2019-02-07T10:15:02.880Z,22.07
2019-02-07T10:17:45.904Z,20.87
2019-02-07T10:20:37.206Z,23.10
2019-02-07T10:23:25.794Z,20.50
2019-02-07T10:26:20.366Z,21.17
2019-02-07T10:29:11.526Z,20.87
2019-02-07T10:32:03.619Z,20.53
2019-02-07T10:34:52.778Z,20.60
2019-02-07T10:37:51.607Z,20.53
2019-02-07T10:40:50.434Z,21.17
2019-02-07T10:43:41.099Z,20.97
2019-02-07T10:46:30.579Z,20.93
2019-02-07T10:49:10.996Z,19.97
2019-02-07T10:52:01.800Z,21.73
2019-02-07T10:54:57.520Z,20.47
2019-02-07T10:57:39.355Z,21.40
2019-02-07T11:00:33.420Z,20.80
2019-02-07T11:03:14.985Z,21.47
2019-02-07T11:06:07.552Z,21.53
2019-02-07T11:08:51.304Z,22.57
2019-02-07T11:11:47.339Z,22.70
2019-02-07T11:14:39.852Z,22.27
2019-02-07T11:17:36.336Z,22.77
2019-02-07T11:20:34.023Z,22.93
2019-02-07T11:23:14.778Z,21.90
2019-02-07T11:26:04.753Z,21.30
2019-02-07T11:28:43.468Z,21.90
2019-02-07T11:31:52.063Z,20.80
2019-02-07T11:34:37.252Z,21.57
2019-02-07T11:37:30.101Z,21.70
2019-02-07T11:40:25.952Z,19.80
2019-02-07T11:43:23.299Z,20.07
2019-02-07T11:46:37.465Z,19.10
2019-02-07T11:49:21.682Z,20.57
2019-02-07T11:52:10.559Z,22.10
2019-02-07T11:54:48.872Z,19.23
2019-02-07T11:57:40.661Z,18.70
2019-02-07T12:00:32.972Z,17.93
2019-02-07T12:03:13.754Z,18.33
2019-02-07T12:06:02.385Z,19.00
2019-02-07T12:08:50.768Z,18.00
2019-02-07T12:11:48.691Z,18.00
2019-02-07T12:14:37.002Z,17.33
2019-02-07T12:17:25.686Z,18.03
2019-02-07T12:20:14.295Z,16.33
2019-02-07T12:23:20.096Z,17.90
2019-02-07T12:26:09.932Z,18.03
2019-02-07T12:28:58.565Z,18.50
2019-02-07T12:31:48.120Z,16.77
2019-02-07T12:34:44.156Z,17.23
2019-02-07T12:37:30.173Z,16.40
2019-02-07T12:40:38.241Z,17.80
2019-02-07T12:43:37.362Z,17.37
2019-02-07T12:46:31.248Z,16.70
2019-02-07T12:49:33.506Z,18.40
2019-02-07T12:52:23.498Z,16.53
2019-02-07T12:55:12.208Z,16.40
2019-02-07T12:58:08.055Z,16.43
2019-02-07T13:00:57.339Z,16.97
2019-02-07T13:03:56.196Z,17.30
2019-02-07T13:06:47.195Z,16.40
2019-02-07T13:09:40.497Z,16.17
2019-02-07T13:12:21.434Z,17.93
2019-02-07T13:15:10.068Z,17.50
2019-02-07T13:18:10.191Z,16.60
2019-02-07T13:21:06.823Z,18.03
2019-02-07T13:23:59.346Z,16.90
2019-02-07T13:26:36.292Z,17.13
2019-02-07T13:29:29.314Z,16.87
2019-02-07T13:32:31.261Z,16.40
2019-02-07T13:35:29.737Z,17.37
2019-02-07T13:38:19.651Z,17.83
2019-02-07T13:41:00.662Z,17.27
2019-02-07T13:44:09.255Z,17.50
2019-02-07T13:47:03.159Z,17.30
2019-02-07T13:49:51.723Z,17.80
2019-02-07T13:52:36.448Z,35.10
2019-02-07T13:55:44.559Z,26.03
2019-02-07T13:58:34.564Z,32.73
2019-02-07T14:01:21.553Z,18.13
2019-02-07T14:04:13.790Z,17.40
2019-02-07T14:07:05.014Z,17.93
2019-02-07T14:09:53.201Z,17.90
2019-02-07T14:12:33.533Z,16.43
2019-02-07T14:15:17.583Z,16.47
2019-02-07T14:18:06.921Z,16.03
2019-02-07T14:20:55.451Z,15.50
2019-02-07T14:23:35.185Z,15.73
2019-02-07T14:26:27.789Z,16.20
2019-02-07T14:29:25.684Z,17.03
2019-02-07T14:32:14.370Z,16.20
2019-02-07T14:34:55.570Z,16.73
2019-02-07T14:37:45.413Z,16.33
2019-02-07T14:40:23.551Z,15.83
2019-02-07T14:43:16.560Z,16.63
2019-02-07T14:46:24.352Z,17.20
2019-02-07T14:48:55.571Z,16.90
2019-02-07T14:51:26.400Z,17.27
2019-02-07T14:54:00.688Z,15.97
2019-02-07T14:56:30.732Z,16.20
2019-02-07T14:59:01.934Z,16.70
2019-02-07T15:01:33.759Z,19.60
2019-02-07T15:04:05.235Z,16.60
2019-02-07T15:06:36.372Z,16.73
2019-02-07T15:09:18.420Z,18.07
2019-02-07T15:11:49.365Z,16.73
2019-02-07T15:14:20.292Z,17.37
2019-02-07T15:16:51.115Z,16.43
2019-02-07T15:19:22.042Z,17.63
2019-02-07T15:21:53.466Z,18.10
2019-02-07T15:24:24.280Z,17.23
2019-02-07T15:26:55.048Z,16.77
2019-02-07T15:29:25.886Z,16.70
2019-02-07T15:31:56.896Z,15.93
2019-02-07T15:34:27.663Z,17.30
2019-02-07T15:36:58.641Z,14.77
2019-02-07T15:39:29.825Z,15.87
2019-02-07T15:42:01.226Z,16.30
2019-02-07T15:44:32.093Z,15.87
2019-02-07T15:47:04.383Z,14.07
2019-02-07T15:49:35.280Z,16.17
2019-02-07T15:52:06.514Z,15.53
2019-02-07T15:54:39.497Z,15.13
2019-02-07T15:57:11.612Z,15.13
2019-02-07T15:59:58.106Z,15.87
2019-02-07T16:02:33.920Z,16.17
2019-02-07T16:05:08.058Z,15.43
2019-02-07T16:07:39.718Z,15.60
2019-02-07T16:10:13.321Z,15.10
2019-02-07T16:12:44.173Z,14.60
2019-02-07T16:15:15.403Z,15.23
2019-02-07T16:17:46.239Z,15.37
2019-02-07T16:20:18.391Z,13.93
2019-02-07T16:23:01.815Z,15.43
2019-02-07T16:25:33.602Z,15.17
2019-02-07T16:28:04.957Z,16.17
2019-02-07T16:30:35.881Z,16.33
2019-02-07T16:33:07.194Z,16.50
2019-02-07T16:35:38.350Z,16.70
2019-02-07T16:38:09.468Z,20.00
2019-02-07T16:40:40.246Z,17.10
2019-02-07T16:43:11.001Z,17.87
2019-02-07T16:45:42.298Z,15.83
2019-02-07T16:48:13.480Z,15.13
2019-02-07T16:50:45.502Z,14.87
2019-02-07T16:53:16.731Z,15.40
2019-02-07T16:55:47.575Z,15.00
2019-02-07T16:58:18.361Z,14.67
2019-02-07T17:00:49.136Z,15.13
2019-02-07T17:03:20.314Z,16.07
2019-02-07T17:05:51.412Z,14.87
2019-02-07T17:08:22.474Z,15.47
2019-02-07T17:10:53.432Z,15.93
2019-02-07T17:13:24.417Z,15.23
2019-02-07T17:15:55.763Z,16.73
2019-02-07T17:18:26.835Z,13.93
2019-02-07T17:20:57.697Z,14.70
2019-02-07T17:23:28.779Z,15.10
2019-02-07T17:25:59.974Z,14.77
2019-02-07T17:28:31.116Z,15.27
2019-02-07T17:31:02.910Z,14.90
2019-02-07T17:33:34.003Z,14.40
2019-02-07T17:36:05.273Z,16.37
2019-02-07T17:38:36.817Z,16.30
2019-02-07T17:41:07.810Z,18.20
2019-02-07T17:43:39.635Z,15.27
2019-02-07T17:46:10.477Z,15.87
2019-02-07T17:48:41.307Z,16.47
2019-02-07T17:51:22.648Z,16.63
2019-02-07T17:53:44.699Z,16.17
2019-02-07T17:56:15.791Z,15.73
2019-02-07T17:58:46.749Z,15.97
2019-02-07T18:01:17.593Z,15.67
2019-02-07T18:03:48.496Z,16.63
2019-02-07T18:06:19.442Z,15.63
2019-02-07T18:08:50.517Z,16.03
2019-02-07T18:11:21.366Z,15.60
2019-02-07T18:13:52.192Z,15.33
2019-02-07T18:16:23.343Z,15.10
2019-02-07T18:18:54.385Z,14.13
2019-02-07T18:21:33.897Z,14.70
2019-02-07T18:23:57.646Z,14.13
2019-02-07T18:26:28.598Z,13.97
2019-02-07T18:28:59.713Z,14.00
2019-02-07T18:31:30.582Z,14.57
2019-02-07T18:34:01.704Z,13.67
2019-02-07T18:36:32.940Z,14.20
2019-02-07T18:39:05.947Z,13.17
2019-02-07T18:41:38.919Z,13.20
2019-02-07T18:44:09.999Z,13.60
2019-02-07T18:46:41.505Z,14.60
2019-02-07T18:49:12.553Z,14.13
2019-02-07T18:51:45.747Z,14.17
2019-02-07T18:54:16.616Z,13.93
2019-02-07T18:56:47.687Z,14.13
2019-02-07T18:59:18.695Z,14.40
2019-02-07T19:01:49.788Z,14.53
2019-02-07T19:04:21.024Z,13.67
2019-02-07T19:06:52.042Z,13.10
2019-02-07T19:09:22.807Z,13.20
2019-02-07T19:11:54.797Z,14.30
2019-02-07T19:14:25.830Z,13.43
2019-02-07T19:16:56.709Z,13.60
2019-02-07T19:19:27.946Z,14.40
2019-02-07T19:21:59.028Z,13.20
2019-02-07T19:24:30.093Z,13.03
2019-02-07T19:27:01.266Z,13.53
2019-02-07T19:29:32.248Z,12.47
2019-02-07T19:32:03.055Z,13.60
2019-02-07T19:34:34.130Z,13.67
2019-02-07T19:37:05.036Z,13.60
2019-02-07T19:39:36.199Z,12.03
2019-02-07T19:42:07.379Z,14.00
2019-02-07T19:44:38.295Z,13.53
2019-02-07T19:47:09.422Z,14.20
2019-02-07T19:49:40.480Z,16.00
2019-02-07T19:52:11.930Z,14.33
2019-02-07T19:54:43.067Z,13.77
2019-02-07T19:57:14.336Z,15.40
2019-02-07T19:59:45.548Z,14.30
2019-02-07T20:02:16.427Z,14.00
2019-02-07T20:04:47.724Z,13.23
2019-02-07T20:07:18.677Z,12.73
2019-02-07T20:09:49.606Z,12.67
2019-02-07T20:12:21.022Z,13.73
2019-02-07T20:14:52.189Z,13.07
2019-02-07T20:17:23.107Z,12.40
2019-02-07T20:19:54.412Z,13.23
2019-02-07T20:22:25.556Z,12.57
2019-02-07T20:24:56.631Z,12.37
2019-02-07T20:27:28.560Z,12.57
2019-02-07T20:29:59.292Z,11.63
2019-02-07T20:32:30.439Z,12.13
2019-02-07T20:35:01.927Z,11.77
2019-02-07T20:37:32.868Z,12.17
2019-02-07T20:40:04.343Z,11.73
2019-02-07T20:42:35.647Z,12.53
2019-02-07T20:45:08.314Z,11.63
2019-02-07T20:47:39.739Z,11.93
2019-02-07T20:50:13.228Z,11.10
2019-02-07T20:52:44.412Z,11.40
2019-02-07T20:55:15.368Z,11.10
2019-02-07T20:57:46.382Z,10.37
2019-02-07T21:00:25.689Z,10.63
2019-02-07T21:02:56.772Z,11.33
2019-02-07T21:05:28.596Z,10.10
2019-02-07T21:08:00.607Z,10.73
2019-02-07T21:10:32.419Z,9.73
2019-02-07T21:13:03.294Z,10.47
2019-02-07T21:15:34.223Z,10.67
2019-02-07T21:18:05.438Z,14.30
2019-02-07T21:20:36.786Z,11.30
2019-02-07T21:23:08.009Z,14.00
2019-02-07T21:25:50.448Z,9.57
2019-02-07T21:28:21.559Z,8.90
2019-02-07T21:30:52.542Z,9.50
2019-02-07T21:33:23.339Z,9.67
2019-02-07T21:35:54.728Z,9.17
2019-02-07T21:38:25.854Z,9.40
2019-02-07T21:40:57.106Z,9.17
2019-02-07T21:43:27.947Z,9.60
2019-02-07T21:45:58.778Z,9.60
2019-02-07T21:48:29.786Z,9.20
2019-02-07T21:51:00.683Z,8.67
2019-02-07T21:53:32.003Z,8.73
2019-02-07T21:56:02.891Z,8.73
2019-02-07T21:58:34.293Z,8.13
2019-02-07T22:01:05.700Z,8.07
2019-02-07T22:03:36.539Z,7.80
2019-02-07T22:06:07.780Z,7.93
2019-02-07T22:08:39.530Z,7.30
2019-02-07T22:11:10.360Z,7.97
2019-02-07T22:13:41.548Z,7.50
2019-02-07T22:16:12.377Z,8.33
2019-02-07T22:18:43.372Z,7.20
2019-02-07T22:21:14.768Z,7.23
2019-02-07T22:23:45.762Z,7.40
2019-02-07T22:26:16.822Z,7.20
2019-02-07T22:28:47.887Z,7.37
2019-02-07T22:31:19.001Z,7.40
2019-02-07T22:33:49.878Z,7.37
2019-02-07T22:36:20.934Z,7.10
2019-02-07T22:38:51.966Z,7.50
2019-02-07T22:41:22.718Z,7.43
2019-02-07T22:43:53.563Z,7.03
2019-02-07T22:46:24.310Z,6.87
2019-02-07T22:48:55.422Z,6.90
2019-02-07T22:51:26.249Z,6.70
2019-02-07T22:53:57.628Z,6.80
2019-02-07T22:56:28.761Z,7.37
2019-02-07T22:58:59.758Z,6.53
2019-02-07T23:01:42.555Z,6.03
2019-02-07T23:04:13.705Z,6.80
2019-02-07T23:06:44.811Z,6.87
2019-02-07T23:09:18.119Z,6.50
2019-02-07T23:11:49.188Z,6.17
2019-02-07T23:14:20.458Z,5.93
2019-02-07T23:16:51.222Z,6.10
2019-02-07T23:19:22.289Z,5.87
2019-02-07T23:21:53.692Z,5.83
2019-02-07T23:24:24.563Z,6.03
2019-02-07T23:26:55.522Z,6.60
2019-02-07T23:29:26.613Z,6.77
2019-02-07T23:31:57.371Z,6.50
2019-02-07T23:34:28.387Z,6.10
2019-02-07T23:36:59.491Z,6.37
2019-02-07T23:39:30.534Z,6.10
2019-02-07T23:42:01.596Z,6.40
2019-02-07T23:44:32.347Z,6.33
2019-02-07T23:47:03.163Z,6.40
2019-02-07T23:49:33.941Z,6.13
2019-02-07T23:52:04.894Z,6.80
2019-02-07T23:54:36.246Z,6.80
2019-02-07T23:57:07.068Z,6.30
2019-02-07T23:59:38.084Z,6.87
